Terminal Aerodrome Forecast
Issued by NWS Sioux Falls, SD

Home | Current Version | Previous Version | Text Only | Print | Product List | Glossary On
Versions: 1 2 3 4 5 6 7 8 9 10 11 12
063
FTUS43 KFSD 280520
TAFHON
TAF
KHON 280520Z 2806/2906 29007KT P6SM SKC
     FM281500 31015G23KT P6SM SCT060
     FM281700 31020G29KT P6SM SCT060
     FM290200 35010KT P6SM SCT080
     FM290400 33006KT P6SM BKN060=

USA.gov is the U.S. government's official web portal to all federal, state and local government web resources and services.